Time;durP1;ratioP1;P1;durP2;ratioP2;P2;SDS_P1;SDS_P2;PMS_P1;PMS_P2;Temp;Humidity;BMP_temperature;BMP_pressure;BME280_temperature;BME280_humidity;BME280_pressure;Samples;Min_cycle;Max_cycle;Signal;HPM_P1;HPM_P2
2022/11/02 00:01:27;;;;;;;5.47;1.48;;;12.70;99.90;;;;;;4921463;29;20036;-85
2022/11/02 00:03:53;;;;;;;4.15;1.55;;;12.70;99.90;;;;;;4939190;29;20039;-84
2022/11/02 00:06:19;;;;;;;5.10;1.38;;;12.70;99.90;;;;;;4908297;29;20043;-84
2022/11/02 00:08:44;;;;;;;6.63;1.45;;;12.70;99.90;;;;;;4940785;29;20055;-85
2022/11/02 00:11:10;;;;;;;7.32;1.50;;;12.60;99.90;;;;;;4940382;29;20046;-85
2022/11/02 00:13:36;;;;;;;8.57;1.60;;;12.60;99.90;;;;;;4940719;29;20039;-85
2022/11/02 00:16:04;;;;;;;5.70;1.52;;;12.90;99.90;;;;;;4924303;29;20459;-85
2022/11/02 00:18:33;;;;;;;9.50;1.75;;;12.60;99.90;;;;;;4940534;28;20081;-85
2022/11/02 00:21:00;;;;;;;9.40;1.63;;;12.60;99.90;;;;;;4956134;29;20127;-86
2022/11/02 00:23:26;;;;;;;7.30;1.75;;;12.60;99.90;;;;;;4940142;29;20594;-84
2022/11/02 00:25:53;;;;;;;7.72;1.40;;;12.60;99.90;;;;;;4908683;29;20042;-85
2022/11/02 00:28:19;;;;;;;8.65;1.75;;;12.50;99.90;;;;;;4924750;29;20510;-85
2022/11/02 00:30:45;;;;;;;9.60;2.00;;;12.60;99.90;;;;;;4939297;29;20047;-84
2022/11/02 00:33:10;;;;;;;7.88;2.00;;;12.60;99.90;;;;;;4907936;29;20134;-85
2022/11/02 00:35:37;;;;;;;7.88;1.60;;;12.60;99.90;;;;;;4924075;29;20036;-85
2022/11/02 00:38:03;;;;;;;7.05;1.83;;;12.60;99.90;;;;;;4939815;29;20046;-85
2022/11/02 00:40:29;;;;;;;11.88;2.17;;;12.50;99.90;;;;;;4938970;29;20048;-84
2022/11/02 00:42:54;;;;;;;10.88;1.70;;;12.50;99.90;;;;;;4955772;29;20043;-85
2022/11/02 00:45:21;;;;;;;9.18;2.10;;;12.50;99.90;;;;;;4908369;29;20043;-85
2022/11/02 00:47:47;;;;;;;9.07;1.90;;;12.50;99.90;;;;;;4907810;28;20046;-84
2022/11/02 00:50:13;;;;;;;10.43;2.20;;;12.50;99.90;;;;;;4938670;29;20047;-85
2022/11/02 00:52:39;;;;;;;12.52;2.20;;;12.50;99.90;;;;;;4939331;29;20085;-84
2022/11/02 00:55:07;;;;;;;9.18;1.80;;;12.50;99.90;;;;;;4938701;29;20102;-85
2022/11/02 00:57:34;;;;;;;8.13;2.33;;;12.50;99.90;;;;;;4923522;29;20048;-86
2022/11/02 00:59:59;;;;;;;8.90;1.75;;;12.50;99.90;;;;;;4938587;29;20045;-84
2022/11/02 01:02:26;;;;;;;9.95;1.95;;;12.50;99.90;;;;;;4923914;29;20130;-84
2022/11/02 01:04:51;;;;;;;9.75;1.70;;;12.50;99.90;;;;;;4923105;29;20046;-84
2022/11/02 01:07:17;;;;;;;9.65;2.15;;;12.50;99.90;;;;;;4923509;29;20551;-83
2022/11/02 01:09:43;;;;;;;8.05;2.08;;;12.50;99.90;;;;;;4908001;29;20039;-83
2022/11/02 01:12:09;;;;;;;13.25;2.13;;;12.50;99.90;;;;;;4892608;29;20071;-86
2022/11/02 01:14:35;;;;;;;6.65;1.80;;;12.50;99.90;;;;;;4895963;29;20531;-87
2022/11/02 01:17:01;;;;;;;14.23;2.42;;;12.50;99.90;;;;;;4923624;29;20043;-83
2022/11/02 01:19:27;;;;;;;10.90;2.55;;;12.90;99.90;;;;;;4923309;29;20047;-85
2022/11/02 01:21:52;;;;;;;7.32;2.10;;;12.60;99.90;;;;;;4926610;29;20070;-84
2022/11/02 01:24:18;;;;;;;10.90;2.40;;;12.50;99.90;;;;;;4942910;29;20050;-84
2022/11/02 01:26:44;;;;;;;13.10;2.53;;;12.50;99.90;;;;;;4910229;29;20432;-84
2022/11/02 01:29:11;;;;;;;12.02;2.00;;;12.50;99.90;;;;;;4926288;29;20102;-84
2022/11/02 01:31:36;;;;;;;8.40;1.75;;;12.50;99.90;;;;;;4926755;28;20047;-84
2022/11/02 01:34:02;;;;;;;10.30;2.25;;;12.40;99.90;;;;;;4927221;29;20054;-84
2022/11/02 01:36:28;;;;;;;7.35;1.80;;;12.50;99.90;;;;;;4926255;29;20063;-84
2022/11/02 01:38:54;;;;;;;10.30;2.33;;;12.50;99.90;;;;;;4941709;29;20392;-84
2022/11/02 01:41:21;;;;;;;10.60;2.15;;;12.50;99.90;;;;;;4941553;29;20125;-85
2022/11/02 01:43:50;;;;;;;10.85;2.10;;;12.70;99.90;;;;;;4926189;29;20412;-85
2022/11/02 01:46:23;;;;;;;9.32;2.05;;;12.50;99.90;;;;;;4942267;29;20047;-84
2022/11/02 01:49:02;;;;;;;11.27;2.88;;;12.50;99.90;;;;;;4942091;29;20130;-84
2022/11/02 01:51:48;;;;;;;9.75;2.40;;;12.50;99.90;;;;;;4942011;29;20039;-85
2022/11/02 01:54:17;;;;;;;11.90;2.07;;;12.50;99.90;;;;;;4941810;29;20495;-84
2022/11/02 01:56:48;;;;;;;10.52;2.40;;;12.50;99.90;;;;;;4942189;29;20767;-84
2022/11/02 01:59:21;;;;;;;11.43;2.65;;;12.60;99.90;;;;;;4941819;29;20047;-84
2022/11/02 02:01:48;;;;;;;9.60;2.25;;;12.60;99.90;;;;;;4941823;29;20074;-84
2022/11/02 02:04:14;;;;;;;6.28;1.95;;;12.60;99.90;;;;;;4925950;29;20047;-85
2022/11/02 02:06:40;;;;;;;9.73;2.53;;;12.60;99.90;;;;;;4926124;29;20150;-85
2022/11/02 02:09:08;;;;;;;4.00;1.15;;;12.60;99.90;;;;;;4926133;29;20043;-84
2022/11/02 02:11:35;;;;;;;5.53;1.10;;;12.50;99.90;;;;;;4926004;29;20039;-84
2022/11/02 02:14:06;;;;;;;3.22;0.85;;;12.40;99.90;;;;;;4941797;29;20051;-84
2022/11/02 02:17:13;;;;;;;3.30;0.70;;;12.20;99.90;;;;;;4940833;29;20047;-87
2022/11/02 02:19:47;;;;;;;2.40;0.90;;;12.10;99.90;;;;;;4941087;29;20051;-86
2022/11/02 02:22:30;;;;;;;3.70;1.15;;;12.00;99.90;;;;;;4942019;29;20065;-85
2022/11/02 02:25:34;;;;;;;4.53;1.20;;;11.90;99.90;;;;;;4942814;29;20043;-84
2022/11/02 02:28:38;;;;;;;5.85;1.40;;;11.80;99.90;;;;;;4944433;28;20054;-84
2022/11/02 02:31:09;;;;;;;9.30;2.13;;;11.80;99.90;;;;;;4924806;28;20047;-84
2022/11/02 02:33:46;;;;;;;6.97;1.83;;;11.80;99.90;;;;;;4962910;29;20027;-84
2022/11/02 02:36:16;;;;;;;5.90;1.73;;;11.80;99.90;;;;;;4952272;29;20055;-85
2022/11/02 02:38:53;;;;;;;9.35;1.73;;;11.80;99.90;;;;;;4941788;29;20052;-85
2022/11/02 02:41:27;;;;;;;5.88;2.13;;;11.90;99.90;;;;;;4958002;29;20045;-85
2022/11/02 02:43:54;;;;;;;8.88;1.58;;;11.90;99.90;;;;;;4942006;29;20035;-85
2022/11/02 02:46:56;;;;;;;8.50;1.73;;;11.90;99.90;;;;;;4957345;29;20047;-84
2022/11/02 02:49:28;;;;;;;5.10;1.40;;;11.90;99.90;;;;;;4923764;29;20047;-85
2022/11/02 02:51:56;;;;;;;6.38;1.30;;;11.90;99.90;;;;;;4957930;29;20135;-84
2022/11/02 02:54:28;;;;;;;4.95;1.20;;;11.90;99.90;;;;;;4953757;29;20368;-85
2022/11/02 02:56:59;;;;;;;5.35;1.35;;;11.90;99.90;;;;;;4938943;29;20123;-84
2022/11/02 02:59:32;;;;;;;4.45;0.80;;;11.80;99.90;;;;;;4940348;29;20047;-83
2022/11/02 03:01:58;;;;;;;5.60;1.48;;;11.70;99.90;;;;;;4940226;29;20041;-84
2022/11/02 03:04:24;;;;;;;3.83;0.98;;;11.70;99.90;;;;;;4939898;29;20091;-84
2022/11/02 03:06:57;;;;;;;6.88;1.15;;;11.60;99.90;;;;;;4940176;29;20044;-84
2022/11/02 03:09:48;;;;;;;5.28;0.88;;;11.60;99.90;;;;;;4940174;29;20043;-84
2022/11/02 03:12:26;;;;;;;4.22;0.88;;;11.60;99.90;;;;;;4953920;29;20043;-84
2022/11/02 03:15:22;;;;;;;5.13;0.90;;;11.50;99.90;;;;;;4940130;29;20047;-84
2022/11/02 03:18:24;;;;;;;6.20;1.23;;;11.50;99.90;;;;;;4939780;29;20043;-84
2022/11/02 03:21:06;;;;;;;4.70;1.10;;;11.50;99.90;;;;;;4923382;29;20098;-84
2022/11/02 03:23:37;;;;;;;4.32;1.20;;;11.40;99.90;;;;;;4939487;29;20126;-84
2022/11/02 03:26:10;;;;;;;7.40;1.08;;;11.30;99.90;;;;;;4940121;29;20048;-84
2022/11/02 03:28:54;;;;;;;7.88;1.10;;;11.40;99.90;;;;;;4940041;29;20046;-84
2022/11/02 03:31:24;;;;;;;7.03;1.58;;;11.30;99.90;;;;;;4944056;29;20071;-85
2022/11/02 03:34:08;;;;;;;5.97;1.80;;;11.30;99.90;;;;;;4920882;29;20523;-84
2022/11/02 03:37:03;;;;;;;8.43;1.40;;;11.30;99.90;;;;;;4931226;28;20066;-84
2022/11/02 03:39:40;;;;;;;3.42;1.00;;;11.40;99.90;;;;;;4938851;29;20043;-83
2022/11/02 03:42:10;;;;;;;6.57;1.08;;;11.30;99.90;;;;;;4940520;29;20087;-84
2022/11/02 03:44:38;;;;;;;7.97;1.30;;;11.30;99.90;;;;;;4939572;29;20054;-84
2022/11/02 03:47:09;;;;;;;7.30;1.33;;;11.30;99.90;;;;;;4939565;29;20047;-84
2022/11/02 03:49:38;;;;;;;9.27;1.55;;;11.30;99.90;;;;;;4939936;29;20508;-84
2022/11/02 03:52:09;;;;;;;5.93;1.17;;;11.30;99.90;;;;;;4938835;29;20039;-84
2022/11/02 03:54:39;;;;;;;8.23;1.40;;;11.30;99.90;;;;;;4955201;29;20431;-83
2022/11/02 03:57:08;;;;;;;9.23;1.70;;;11.40;99.90;;;;;;4939350;29;20070;-85
2022/11/02 03:59:34;;;;;;;8.57;2.22;;;11.40;99.90;;;;;;4939010;29;20407;-84
2022/11/02 04:02:01;;;;;;;10.50;1.63;;;11.40;99.90;;;;;;4923760;29;20043;-83
2022/11/02 04:04:27;;;;;;;6.97;1.45;;;11.40;99.90;;;;;;4939198;29;20039;-84
2022/11/02 04:06:53;;;;;;;7.70;1.40;;;11.40;99.90;;;;;;4923456;29;20046;-84
2022/11/02 04:09:19;;;;;;;7.20;1.63;;;11.40;99.90;;;;;;4938615;29;20078;-84
2022/11/02 04:14:37;;;;;;;10.20;1.85;;;11.30;99.90;;;;;;4941019;29;20051;-84
2022/11/02 04:19:55;;;;;;;9.40;1.60;;;11.40;99.90;;;;;;4940395;29;20130;-83
2022/11/02 04:25:17;;;;;;;6.53;1.70;;;11.40;99.90;;;;;;4941701;29;20134;-84
2022/11/02 04:27:48;;;;;;;5.53;1.92;;;11.40;99.90;;;;;;4938811;29;20110;-84
2022/11/02 04:30:15;;;;;;;6.40;1.70;;;11.40;99.90;;;;;;4937964;29;20114;-84
2022/11/02 04:35:29;;;;;;;11.18;2.15;;;11.40;99.90;;;;;;4954596;29;20047;-83
2022/11/02 04:40:39;;;;;;;8.98;2.28;;;11.40;99.90;;;;;;4908491;29;20050;-84
2022/11/02 04:43:05;;;;;;;12.38;2.22;;;11.40;99.90;;;;;;4921998;29;20043;-83
2022/11/02 04:45:31;;;;;;;6.80;1.63;;;11.40;99.90;;;;;;4939027;28;20131;-83
2022/11/02 04:48:05;;;;;;;10.80;1.95;;;11.40;99.90;;;;;;4926246;29;20043;-83
2022/11/02 04:50:31;;;;;;;9.70;1.90;;;11.40;99.90;;;;;;4927160;29;20090;-83
2022/11/02 04:53:02;;;;;;;13.20;2.00;;;11.50;99.90;;;;;;4942829;29;20094;-83
2022/11/02 04:55:29;;;;;;;8.70;2.08;;;11.40;99.90;;;;;;4942258;29;20043;-83
2022/11/02 04:57:54;;;;;;;10.07;2.17;;;11.50;99.90;;;;;;4942319;29;20041;-84
2022/11/02 05:00:21;;;;;;;10.73;2.13;;;11.50;99.90;;;;;;4910410;28;20039;-83
2022/11/02 05:02:47;;;;;;;10.45;2.40;;;11.50;99.90;;;;;;4958229;29;20085;-83
2022/11/02 05:05:14;;;;;;;12.10;2.72;;;11.50;99.90;;;;;;4926585;29;20043;-85
2022/11/02 05:07:40;;;;;;;8.45;1.90;;;11.50;99.90;;;;;;4927466;29;20435;-83
2022/11/02 05:10:06;;;;;;;11.25;2.35;;;11.50;99.90;;;;;;4942305;29;20043;-83
2022/11/02 05:12:32;;;;;;;14.95;2.60;;;11.60;99.90;;;;;;4927245;29;20518;-84
2022/11/02 05:14:58;;;;;;;13.98;2.47;;;11.60;99.90;;;;;;4927857;29;20046;-84
2022/11/02 05:17:23;;;;;;;10.02;2.10;;;11.60;99.90;;;;;;4910885;29;20069;-85
2022/11/02 05:19:49;;;;;;;10.20;1.90;;;11.50;99.90;;;;;;4911224;29;20043;-84
2022/11/02 05:22:15;;;;;;;15.23;2.30;;;11.40;99.90;;;;;;4942490;29;20035;-86
2022/11/02 05:24:40;;;;;;;12.90;2.65;;;12.20;99.90;;;;;;4927217;29;20082;-86
2022/11/02 05:27:08;;;;;;;17.52;3.17;;;11.30;99.90;;;;;;4958930;28;20123;-86
2022/11/02 05:29:33;;;;;;;9.90;2.33;;;11.30;99.90;;;;;;4943938;28;20130;-85
2022/11/02 05:31:59;;;;;;;11.85;2.63;;;11.20;99.90;;;;;;4944013;29;20078;-85
2022/11/02 05:34:25;;;;;;;13.25;2.58;;;11.20;99.90;;;;;;4928578;29;20039;-86
2022/11/02 05:36:51;;;;;;;11.88;2.60;;;11.20;99.90;;;;;;4943425;28;20058;-85
2022/11/02 05:39:16;;;;;;;14.32;2.60;;;11.10;99.90;;;;;;4943329;28;20047;-84
2022/11/02 05:41:42;;;;;;;10.93;2.75;;;11.10;99.90;;;;;;4942623;29;20077;-87
2022/11/02 05:44:08;;;;;;;14.35;2.83;;;11.10;99.90;;;;;;4943018;29;20035;-85
2022/11/02 05:46:33;;;;;;;14.43;2.58;;;11.10;99.90;;;;;;4942813;29;20043;-85
2022/11/02 05:48:59;;;;;;;10.85;2.55;;;11.10;99.90;;;;;;4926842;29;20407;-87
2022/11/02 05:51:25;;;;;;;12.02;3.00;;;11.00;99.90;;;;;;4926274;29;20043;-85
2022/11/02 05:53:50;;;;;;;17.30;2.60;;;11.00;99.90;;;;;;4945791;29;20046;-84
2022/11/02 05:56:16;;;;;;;14.55;2.63;;;11.00;99.90;;;;;;4928567;29;20047;-84
2022/11/02 05:58:42;;;;;;;13.23;3.15;;;11.00;99.90;;;;;;4927021;29;20079;-84
2022/11/02 06:01:09;;;;;;;12.32;2.58;;;11.00;99.90;;;;;;4926113;29;20044;-86
2022/11/02 06:03:35;;;;;;;14.27;2.83;;;11.00;99.90;;;;;;4942394;29;20525;-85
2022/11/02 06:06:03;;;;;;;12.57;2.78;;;11.00;99.90;;;;;;4941864;29;20492;-84
2022/11/02 06:08:34;;;;;;;8.23;2.42;;;11.00;99.90;;;;;;4942049;29;20514;-84
2022/11/02 06:11:18;;;;;;;9.70;2.08;;;11.00;99.90;;;;;;4941259;29;20039;-86
2022/11/02 06:13:48;;;;;;;16.60;2.53;;;10.90;99.90;;;;;;4923835;29;20464;-85
2022/11/02 06:16:14;;;;;;;12.48;2.85;;;11.00;99.90;;;;;;4924532;29;20055;-84
2022/11/02 06:18:40;;;;;;;16.75;2.70;;;10.90;99.90;;;;;;4925884;29;20035;-85
2022/11/02 06:21:05;;;;;;;15.77;3.25;;;10.90;99.90;;;;;;4941544;29;20495;-84
2022/11/02 06:23:31;;;;;;;11.43;2.88;;;10.90;99.90;;;;;;4926156;29;20042;-85
2022/11/02 06:25:58;;;;;;;14.50;2.85;;;10.90;99.90;;;;;;4941642;29;20166;-85
2022/11/02 06:28:25;;;;;;;15.80;2.95;;;10.90;99.90;;;;;;4925649;29;20099;-85
2022/11/02 06:30:51;;;;;;;11.90;2.60;;;10.90;99.90;;;;;;4957439;28;20487;-85
2022/11/02 06:33:18;;;;;;;12.90;3.10;;;10.80;99.90;;;;;;4942581;29;20043;-84
2022/11/02 06:35:51;;;;;;;16.95;2.83;;;10.80;99.90;;;;;;4926546;29;20053;-85
2022/11/02 06:38:18;;;;;;;18.23;3.00;;;10.80;99.90;;;;;;4937221;29;20559;-85
2022/11/02 06:40:52;;;;;;;11.90;2.83;;;10.80;99.90;;;;;;4940852;29;20108;-85
2022/11/02 06:43:18;;;;;;;13.52;3.08;;;10.80;99.90;;;;;;4941421;29;20077;-84
2022/11/02 06:45:44;;;;;;;15.43;2.65;;;10.70;99.90;;;;;;4940913;28;20484;-84
2022/11/02 06:48:09;;;;;;;16.17;2.63;;;10.70;99.90;;;;;;4907461;29;20078;-84
2022/11/02 06:50:35;;;;;;;22.67;3.00;;;10.70;99.90;;;;;;4923502;29;20043;-85
2022/11/02 06:53:01;;;;;;;16.23;2.72;;;10.70;99.90;;;;;;4950484;29;20047;-84
2022/11/02 06:55:27;;;;;;;10.45;2.80;;;10.70;99.90;;;;;;4940194;29;20059;-84
2022/11/02 06:57:53;;;;;;;17.33;2.65;;;10.70;99.90;;;;;;4916526;29;20065;-83
2022/11/02 07:00:20;;;;;;;14.48;3.00;;;10.80;99.90;;;;;;4942066;29;20051;-83
2022/11/02 07:03:01;;;;;;;21.73;3.28;;;10.80;99.90;;;;;;4940820;29;20098;-85
2022/11/02 07:05:28;;;;;;;12.70;2.55;;;10.80;99.90;;;;;;4939660;29;20384;-82
2022/11/02 07:07:54;;;;;;;15.98;3.28;;;10.80;99.90;;;;;;4939682;29;20118;-85
2022/11/02 07:10:19;;;;;;;10.30;2.13;;;10.90;99.90;;;;;;4936113;29;20075;-85
2022/11/02 07:12:45;;;;;;;14.65;2.50;;;10.90;99.90;;;;;;4921574;29;20090;-85
2022/11/02 07:15:11;;;;;;;17.92;2.35;;;10.90;99.90;;;;;;4918640;29;20051;-86
2022/11/02 07:17:40;;;;;;;13.35;2.20;;;11.00;99.90;;;;;;4922174;29;20119;-85
2022/11/02 07:20:09;;;;;;;19.05;2.30;;;11.00;99.90;;;;;;4949452;29;20045;-87
2022/11/02 07:22:35;;;;;;;14.05;2.15;;;11.00;99.90;;;;;;4940274;29;20035;-85
2022/11/02 07:25:01;;;;;;;15.10;2.83;;;11.10;99.90;;;;;;4940562;29;20040;-85
2022/11/02 07:27:27;;;;;;;13.13;2.40;;;11.10;99.90;;;;;;4920656;29;20507;-84
2022/11/02 07:29:53;;;;;;;14.80;2.47;;;11.10;99.90;;;;;;4905578;29;20048;-85
2022/11/02 07:32:18;;;;;;;16.35;2.40;;;11.20;99.90;;;;;;4898799;29;20129;-85
2022/11/02 07:34:44;;;;;;;15.95;2.63;;;11.20;99.90;;;;;;4924253;29;20407;-85
2022/11/02 07:37:10;;;;;;;13.93;2.38;;;11.30;99.90;;;;;;4908763;29;20070;-85
2022/11/02 07:39:35;;;;;;;11.57;2.40;;;11.30;99.90;;;;;;4908432;29;20259;-85
2022/11/02 07:42:01;;;;;;;14.82;2.58;;;11.40;99.90;;;;;;4924389;29;20039;-83
2022/11/02 07:44:28;;;;;;;10.27;1.80;;;11.40;99.90;;;;;;4923998;29;20380;-83
2022/11/02 07:46:54;;;;;;;9.25;2.58;;;11.00;99.90;;;;;;4939245;29;20494;-85
2022/11/02 07:49:19;;;;;;;15.48;2.58;;;11.40;99.90;;;;;;4955691;29;20043;-84
2022/11/02 07:51:45;;;;;;;15.52;2.80;;;11.40;99.90;;;;;;4923993;29;20050;-84
2022/11/02 07:54:11;;;;;;;8.77;1.92;;;11.40;99.90;;;;;;4940794;29;20125;-85
2022/11/02 07:56:36;;;;;;;11.00;1.90;;;11.40;99.90;;;;;;4924097;29;20172;-85
2022/11/02 07:59:02;;;;;;;15.93;2.67;;;11.40;99.90;;;;;;4939914;29;20075;-86
2022/11/02 08:01:28;;;;;;;10.70;2.15;;;11.40;99.90;;;;;;4953229;29;20067;-86
2022/11/02 08:03:53;;;;;;;12.73;2.80;;;11.40;99.90;;;;;;4937304;29;20044;-86
2022/11/02 08:06:25;;;;;;;17.73;2.40;;;11.30;99.90;;;;;;4907972;29;20551;-87
2022/11/02 08:08:51;;;;;;;14.10;2.72;;;11.40;99.90;;;;;;4939112;29;20099;-87
2022/11/02 08:11:17;;;;;;;10.25;1.80;;;11.40;99.90;;;;;;4952809;29;20126;-87
2022/11/02 08:13:43;;;;;;;10.43;2.13;;;11.40;99.90;;;;;;4906166;29;20057;-87
2022/11/02 08:16:08;;;;;;;12.50;2.20;;;11.40;99.90;;;;;;4921654;29;20043;-86
2022/11/02 08:18:34;;;;;;;16.25;2.10;;;11.50;99.90;;;;;;4925359;29;20044;-86
2022/11/02 08:21:00;;;;;;;8.18;2.08;;;11.50;99.90;;;;;;4909948;29;20400;-87
2022/11/02 08:23:26;;;;;;;11.20;1.95;;;11.50;99.90;;;;;;4909828;29;20099;-86
2022/11/02 08:25:53;;;;;;;10.02;1.80;;;11.50;99.90;;;;;;4925504;29;20048;-86
2022/11/02 08:28:29;;;;;;;12.20;1.80;;;11.50;99.90;;;;;;4923340;29;20090;-86
2022/11/02 08:30:57;;;;;;;7.50;1.85;;;11.60;99.90;;;;;;4944795;29;20126;-86
2022/11/02 08:33:23;;;;;;;9.68;2.28;;;11.60;99.90;;;;;;4944136;29;20078;-87
2022/11/02 08:35:49;;;;;;;7.78;1.70;;;11.60;99.90;;;;;;4944381;29;20043;-88
2022/11/02 08:38:15;;;;;;;8.57;1.65;;;11.60;99.90;;;;;;4942962;29;20058;-87
2022/11/02 08:40:41;;;;;;;11.43;2.30;;;11.70;99.90;;;;;;4959277;28;20055;-85
2022/11/02 08:43:10;;;;;;;12.68;2.05;;;11.70;99.90;;;;;;4928614;28;20038;-87
2022/11/02 08:45:37;;;;;;;11.07;1.80;;;11.80;99.90;;;;;;4944985;29;20043;-86
2022/11/02 08:48:04;;;;;;;8.50;1.77;;;11.80;99.90;;;;;;4944205;29;20047;-86
2022/11/02 08:50:29;;;;;;;9.57;1.85;;;11.80;99.90;;;;;;4944446;29;20043;-85
2022/11/02 08:52:55;;;;;;;9.73;1.60;;;11.90;99.90;;;;;;4943303;29;20043;-86
2022/11/02 08:55:21;;;;;;;11.80;1.92;;;11.90;99.90;;;;;;4959613;29;20105;-86
2022/11/02 08:57:51;;;;;;;7.78;1.60;;;12.00;99.90;;;;;;4932290;29;20496;-86
2022/11/02 09:00:19;;;;;;;10.57;1.80;;;12.00;99.90;;;;;;4923928;29;20039;-86
2022/11/02 09:02:58;;;;;;;12.20;1.88;;;12.00;99.90;;;;;;4924217;29;20047;-86
2022/11/02 09:05:24;;;;;;;12.90;2.60;;;12.10;99.90;;;;;;4940853;29;20509;-86
2022/11/02 09:07:57;;;;;;;13.50;1.88;;;12.20;99.90;;;;;;4931763;29;20105;-85
2022/11/02 09:10:23;;;;;;;8.38;1.75;;;12.40;99.90;;;;;;4930256;29;20046;-86
2022/11/02 09:12:49;;;;;;;7.90;1.90;;;12.80;99.90;;;;;;4929712;29;20047;-86
2022/11/02 09:15:14;;;;;;;10.52;1.83;;;13.20;99.90;;;;;;4944234;29;20047;-86
2022/11/02 09:17:41;;;;;;;7.53;1.77;;;13.40;99.90;;;;;;4938923;29;20118;-85
2022/11/02 09:20:07;;;;;;;9.38;1.77;;;13.40;99.90;;;;;;4940158;29;20043;-85
2022/11/02 09:22:32;;;;;;;12.57;2.17;;;13.60;99.90;;;;;;4957994;29;20397;-85
2022/11/02 09:24:58;;;;;;;15.75;2.17;;;13.60;99.90;;;;;;4942327;29;20039;-86
2022/11/02 09:27:24;;;;;;;7.60;1.80;;;13.80;99.90;;;;;;4923074;29;20042;-85
2022/11/02 09:29:49;;;;;;;11.88;2.25;;;13.90;99.90;;;;;;4922149;29;20113;-84
2022/11/02 09:32:15;;;;;;;11.35;2.25;;;13.90;99.90;;;;;;4907814;29;20047;-83
2022/11/02 09:34:41;;;;;;;11.68;1.90;;;13.90;99.90;;;;;;4923416;29;20050;-83
2022/11/02 09:37:06;;;;;;;11.45;2.42;;;13.80;99.90;;;;;;4913389;29;20199;-84
2022/11/02 09:39:32;;;;;;;9.57;1.90;;;13.80;99.90;;;;;;4941815;29;20423;-84
2022/11/02 09:42:10;;;;;;;10.38;1.88;;;13.70;99.90;;;;;;4925983;29;20170;-86
2022/11/02 09:44:46;;;;;;;9.70;2.17;;;13.70;99.90;;;;;;4957256;29;20141;-80
2022/11/02 09:47:12;;;;;;;12.02;1.80;;;13.80;99.90;;;;;;4936957;29;20134;-80
2022/11/02 09:49:40;;;;;;;11.30;2.17;;;13.80;99.90;;;;;;4935411;29;20476;-80
2022/11/02 09:52:13;;;;;;;11.93;1.92;;;13.80;99.90;;;;;;4924088;29;20053;-80
2022/11/02 09:54:52;;;;;;;13.13;2.30;;;13.80;99.90;;;;;;4940657;29;20046;-80
2022/11/02 09:57:28;;;;;;;7.55;1.77;;;13.70;99.90;;;;;;4940934;29;20126;-80
2022/11/02 09:59:54;;;;;;;11.48;1.77;;;13.70;99.90;;;;;;4936070;29;20047;-80
2022/11/02 10:02:38;;;;;;;15.07;2.30;;;13.60;99.90;;;;;;4924886;29;20092;-80
2022/11/02 10:05:25;;;;;;;13.18;1.88;;;13.50;99.90;;;;;;4948313;29;20043;-80
2022/11/02 10:08:28;;;;;;;9.93;1.60;;;13.40;99.90;;;;;;4933534;29;20370;-80
2022/11/02 10:11:02;;;;;;;11.63;1.70;;;13.30;99.90;;;;;;4966790;28;20408;-80
2022/11/02 10:13:45;;;;;;;9.50;1.83;;;13.20;99.90;;;;;;4933671;29;20086;-80
2022/11/02 10:16:21;;;;;;;9.60;2.00;;;13.20;99.90;;;;;;4959443;28;20047;-79
2022/11/02 10:18:49;;;;;;;15.45;2.17;;;13.20;99.90;;;;;;4953387;29;20078;-81
2022/11/02 10:21:20;;;;;;;10.20;1.98;;;13.20;99.90;;;;;;4952802;29;20039;-80
2022/11/02 10:23:53;;;;;;;17.27;2.60;;;13.30;99.90;;;;;;4937899;29;20066;-81
2022/11/02 10:26:42;;;;;;;8.77;1.50;;;13.30;99.90;;;;;;4921285;29;20043;-81
2022/11/02 10:29:40;;;;;;;13.65;1.80;;;13.30;99.90;;;;;;4937394;29;20105;-81
2022/11/02 10:32:11;;;;;;;13.32;2.08;;;13.40;99.90;;;;;;4940403;29;20043;-81
2022/11/02 10:34:39;;;;;;;16.90;2.20;;;13.50;99.90;;;;;;4938668;29;20086;-81
2022/11/02 10:37:08;;;;;;;11.50;1.70;;;13.50;99.90;;;;;;4939316;29;20063;-81
2022/11/02 10:39:55;;;;;;;13.95;1.60;;;13.60;99.90;;;;;;4939280;29;20046;-80
2022/11/02 10:42:55;;;;;;;9.43;1.85;;;13.70;99.90;;;;;;4954122;28;20095;-81
2022/11/02 10:45:27;;;;;;;7.20;1.63;;;13.70;99.90;;;;;;4953814;29;20511;-81
2022/11/02 10:48:31;;;;;;;9.60;1.98;;;13.60;99.90;;;;;;4952882;29;20381;-81
2022/11/02 10:51:02;;;;;;;9.68;1.80;;;13.70;99.90;;;;;;4929305;29;20035;-81
2022/11/02 10:53:34;;;;;;;9.65;1.70;;;13.70;99.90;;;;;;4936248;29;20047;-81
2022/11/02 10:56:20;;;;;;;12.10;1.88;;;13.60;99.90;;;;;;4951100;29;20130;-81
2022/11/02 10:58:54;;;;;;;9.68;2.17;;;13.60;99.90;;;;;;4932238;29;20105;-81
2022/11/02 11:01:20;;;;;;;12.50;1.70;;;13.70;99.90;;;;;;4956176;29;20039;-81
2022/11/02 11:03:54;;;;;;;8.48;2.25;;;13.70;99.90;;;;;;4915497;29;20094;-81
2022/11/02 11:06:22;;;;;;;10.20;1.67;;;13.80;99.90;;;;;;4937095;29;20035;-81
2022/11/02 11:08:50;;;;;;;6.10;1.60;;;13.80;99.90;;;;;;4954532;29;20047;-81
2022/11/02 11:11:31;;;;;;;13.88;1.80;;;13.80;99.90;;;;;;4939158;29;20047;-81
2022/11/02 11:14:04;;;;;;;8.48;1.75;;;13.90;99.90;;;;;;4940242;29;20051;-82
2022/11/02 11:16:41;;;;;;;13.48;2.00;;;13.90;99.90;;;;;;4949716;29;20058;-81
2022/11/02 11:19:20;;;;;;;8.32;1.52;;;13.90;99.90;;;;;;4937824;29;20051;-79
2022/11/02 11:21:48;;;;;;;11.38;1.90;;;13.90;99.90;;;;;;4954616;29;20039;-78
2022/11/02 11:24:22;;;;;;;8.07;1.48;;;13.90;99.90;;;;;;4947391;29;20050;-79
2022/11/02 11:27:05;;;;;;;9.40;1.77;;;14.10;99.90;;;;;;4940891;29;20150;-79
2022/11/02 11:29:34;;;;;;;8.25;1.40;;;14.30;99.90;;;;;;4937580;29;20059;-79
2022/11/02 11:32:01;;;;;;;12.63;1.80;;;14.40;99.90;;;;;;4921708;29;20039;-79
2022/11/02 11:34:30;;;;;;;7.22;1.50;;;14.40;99.90;;;;;;4938470;29;20039;-80
2022/11/02 11:37:11;;;;;;;8.95;1.30;;;14.50;99.90;;;;;;4953834;29;20063;-80
2022/11/02 11:39:39;;;;;;;7.30;1.70;;;14.50;99.90;;;;;;4946826;29;21930;-81
2022/11/02 11:42:19;;;;;;;9.77;1.67;;;14.40;99.90;;;;;;4924272;29;20039;-80
2022/11/02 11:45:04;;;;;;;12.98;1.58;;;14.40;99.90;;;;;;4940781;29;20054;-80
2022/11/02 11:47:33;;;;;;;7.00;1.75;;;14.30;99.90;;;;;;4939294;29;20039;-80
2022/11/02 11:50:02;;;;;;;11.43;2.00;;;14.30;99.90;;;;;;4937196;29;20094;-81
2022/11/02 11:52:31;;;;;;;10.23;1.65;;;14.20;99.90;;;;;;4938193;29;20195;-81
2022/11/02 11:55:21;;;;;;;8.65;1.90;;;14.30;99.90;;;;;;4953763;29;20043;-81
2022/11/02 11:58:04;;;;;;;11.48;1.67;;;14.30;99.90;;;;;;4930644;29;20178;-80
2022/11/02 12:00:30;;;;;;;13.38;1.70;;;14.50;99.90;;;;;;4950332;29;20138;-80
2022/11/02 12:03:06;;;;;;;7.70;1.40;;;14.60;99.90;;;;;;4922114;29;20306;-80
2022/11/02 12:05:44;;;;;;;5.88;1.38;;;14.50;99.90;;;;;;4938714;29;20138;-80
2022/11/02 12:08:25;;;;;;;9.45;1.40;;;14.50;99.90;;;;;;4938474;29;20083;-80
2022/11/02 12:11:12;;;;;;;12.13;1.80;;;14.40;99.90;;;;;;4953656;29;20043;-80
2022/11/02 12:13:56;;;;;;;11.52;1.35;;;14.40;99.90;;;;;;4937176;29;20126;-80
2022/11/02 12:16:47;;;;;;;8.35;1.50;;;14.50;99.90;;;;;;4931612;29;20050;-82
2022/11/02 12:19:23;;;;;;;8.52;1.75;;;14.60;99.90;;;;;;4931848;29;20043;-81
2022/11/02 12:21:58;;;;;;;7.93;1.52;;;14.60;99.90;;;;;;4949343;29;20043;-81
2022/11/02 12:24:23;;;;;;;8.02;1.50;;;14.60;99.90;;;;;;4922807;29;20039;-81
2022/11/02 12:27:33;;;;;;;6.97;1.98;;;14.60;99.90;;;;;;4926204;29;20210;-81
2022/11/02 12:30:23;;;;;;;10.32;1.92;;;14.50;99.90;;;;;;4937479;29;20062;-82
2022/11/02 12:32:55;;;;;;;13.65;2.08;;;14.50;99.90;;;;;;4954255;29;20039;-82
2022/11/02 12:35:23;;;;;;;9.10;1.70;;;14.40;99.90;;;;;;4945439;29;20063;-81
2022/11/02 12:38:08;;;;;;;7.90;1.40;;;14.40;99.90;;;;;;4935331;29;20385;-84
2022/11/02 12:40:58;;;;;;;9.02;1.80;;;14.30;99.90;;;;;;4953267;28;20099;-84
2022/11/02 12:43:38;;;;;;;9.35;1.55;;;14.30;99.90;;;;;;4937304;29;20050;-84
2022/11/02 12:46:09;;;;;;;10.50;2.13;;;14.40;99.90;;;;;;4926683;29;20095;-84
2022/11/02 12:48:45;;;;;;;13.65;2.30;;;14.40;99.90;;;;;;4929999;29;20074;-84
2022/11/02 12:51:18;;;;;;;10.25;1.70;;;14.60;99.90;;;;;;4930483;29;20063;-85
2022/11/02 12:54:07;;;;;;;10.77;2.25;;;14.90;99.90;;;;;;4951481;29;20443;-83
2022/11/02 12:56:48;;;;;;;8.77;2.33;;;15.30;99.90;;;;;;4952715;29;21126;-83
2022/11/02 12:59:20;;;;;;;8.35;2.13;;;15.60;99.90;;;;;;4953250;29;20046;-83
2022/11/02 13:01:51;;;;;;;8.48;1.58;;;15.60;99.90;;;;;;4952904;29;20495;-84
2022/11/02 13:04:19;;;;;;;8.77;1.70;;;15.50;99.90;;;;;;4939751;29;20039;-84
2022/11/02 13:06:53;;;;;;;9.93;1.77;;;15.40;99.90;;;;;;4950242;29;20063;-83
2022/11/02 13:09:40;;;;;;;12.68;1.65;;;15.30;99.90;;;;;;4935754;29;20077;-84
2022/11/02 13:12:16;;;;;;;10.32;1.67;;;15.10;99.90;;;;;;4934375;29;20043;-85
2022/11/02 13:14:44;;;;;;;;;;;14.90;99.90;;;;;;4937896;29;20119;-82
2022/11/02 13:17:33;;;;;;;8.45;2.15;;;14.70;99.90;;;;;;4939907;28;19918;-83